sensor_id;sensor_type;location;lat;lon;timestamp;pressure;altitude;pressure_sealevel;temperature;humidity
69535;BME280;56754;51.568;5.048;2023-01-29T00:00:43;103007.38;;;13.82;46.53
69535;BME280;56754;51.568;5.048;2023-01-29T00:03:09;103009.25;;;13.81;46.47
69535;BME280;56754;51.568;5.048;2023-01-29T00:05:34;103012.44;;;13.88;46.38
69535;BME280;56754;51.568;5.048;2023-01-29T00:08:00;103006.50;;;13.92;45.82
69535;BME280;56754;51.568;5.048;2023-01-29T00:10:26;102995.75;;;13.92;46.20
69535;BME280;56754;51.568;5.048;2023-01-29T00:12:51;103001.66;;;13.88;45.73
69535;BME280;56754;51.568;5.048;2023-01-29T00:15:16;102998.22;;;13.83;44.32
69535;BME280;56754;51.568;5.048;2023-01-29T00:17:42;102985.09;;;13.76;43.45
69535;BME280;56754;51.568;5.048;2023-01-29T00:20:08;102987.81;;;13.66;43.22
69535;BME280;56754;51.568;5.048;2023-01-29T00:22:33;102973.09;;;13.53;43.27
69535;BME280;56754;51.568;5.048;2023-01-29T00:24:58;102974.53;;;13.40;44.24
69535;BME280;56754;51.568;5.048;2023-01-29T00:27:24;102978.59;;;13.28;44.98
69535;BME280;56754;51.568;5.048;2023-01-29T00:29:49;102981.84;;;13.14;45.27
69535;BME280;56754;51.568;5.048;2023-01-29T00:32:14;102974.09;;;13.03;44.98
69535;BME280;56754;51.568;5.048;2023-01-29T00:34:39;102967.94;;;12.92;45.58
69535;BME280;56754;51.568;5.048;2023-01-29T00:37:05;102962.84;;;12.80;46.14
69535;BME280;56754;51.568;5.048;2023-01-29T00:39:30;102955.63;;;12.70;46.29
69535;BME280;56754;51.568;5.048;2023-01-29T00:41:56;102951.09;;;12.61;46.51
69535;BME280;56754;51.568;5.048;2023-01-29T00:44:21;102959.16;;;12.50;46.93
69535;BME280;56754;51.568;5.048;2023-01-29T00:46:46;102947.34;;;12.41;47.23
69535;BME280;56754;51.568;5.048;2023-01-29T00:49:12;102950.84;;;12.32;47.42
69535;BME280;56754;51.568;5.048;2023-01-29T00:51:38;102941.47;;;12.24;47.56
69535;BME280;56754;51.568;5.048;2023-01-29T00:54:03;102933.97;;;12.16;47.93
69535;BME280;56754;51.568;5.048;2023-01-29T00:56:29;102945.75;;;12.10;47.67
69535;BME280;56754;51.568;5.048;2023-01-29T00:58:55;102939.84;;;12.02;48.27
69535;BME280;56754;51.568;5.048;2023-01-29T01:01:22;102934.75;;;11.96;48.37
69535;BME280;56754;51.568;5.048;2023-01-29T01:03:47;102941.19;;;11.90;48.01
69535;BME280;56754;51.568;5.048;2023-01-29T01:06:13;102954.78;;;11.83;48.28
69535;BME280;56754;51.568;5.048;2023-01-29T01:08:38;102953.19;;;11.77;48.85
69535;BME280;56754;51.568;5.048;2023-01-29T01:11:05;102949.72;;;11.71;48.61
69535;BME280;56754;51.568;5.048;2023-01-29T01:13:32;102946.22;;;11.66;49.06
69535;BME280;56754;51.568;5.048;2023-01-29T01:15:57;102937.34;;;11.60;48.87
69535;BME280;56754;51.568;5.048;2023-01-29T01:18:22;102931.19;;;11.54;48.96
69535;BME280;56754;51.568;5.048;2023-01-29T01:20:48;102929.56;;;11.48;48.83
69535;BME280;56754;51.568;5.048;2023-01-29T01:23:13;102927.09;;;11.42;49.25
69535;BME280;56754;51.568;5.048;2023-01-29T01:25:39;102935.94;;;11.37;49.18
69535;BME280;56754;51.568;5.048;2023-01-29T01:28:04;102939.66;;;11.31;49.31
69535;BME280;56754;51.568;5.048;2023-01-29T01:30:29;102938.03;;;11.25;49.04
69535;BME280;56754;51.568;5.048;2023-01-29T01:32:55;102926.50;;;11.19;49.35
69535;BME280;56754;51.568;5.048;2023-01-29T01:35:20;102923.00;;;11.13;49.58
69535;BME280;56754;51.568;5.048;2023-01-29T01:37:45;102927.53;;;11.08;49.48
69535;BME280;56754;51.568;5.048;2023-01-29T01:40:17;102930.16;;;11.03;49.22
69535;BME280;56754;51.568;5.048;2023-01-29T01:42:45;102948.34;;;10.96;49.39
69535;BME280;56754;51.568;5.048;2023-01-29T01:48:13;102938.34;;;10.81;49.42
69535;BME280;56754;51.568;5.048;2023-01-29T01:50:45;102943.66;;;10.76;49.11
69535;BME280;56754;51.568;5.048;2023-01-29T01:53:40;102929.44;;;10.70;49.46
69535;BME280;56754;51.568;5.048;2023-01-29T01:56:13;102944.94;;;10.63;49.69
69535;BME280;56754;51.568;5.048;2023-01-29T01:58:47;102942.22;;;10.58;49.48
69535;BME280;56754;51.568;5.048;2023-01-29T02:01:14;102945.69;;;10.53;49.95
69535;BME280;56754;51.568;5.048;2023-01-29T02:03:49;102950.19;;;10.47;49.58
69535;BME280;56754;51.568;5.048;2023-01-29T02:06:17;102943.97;;;10.42;50.05
69535;BME280;56754;51.568;5.048;2023-01-29T02:09:08;102950.09;;;10.37;50.85
69535;BME280;56754;51.568;5.048;2023-01-29T02:11:35;102952.47;;;10.34;49.95
69535;BME280;56754;51.568;5.048;2023-01-29T02:14:01;102957.00;;;10.33;49.78
69535;BME280;56754;51.568;5.048;2023-01-29T02:16:26;102958.31;;;10.31;49.87
69535;BME280;56754;51.568;5.048;2023-01-29T02:18:51;102954.56;;;10.27;49.96
69535;BME280;56754;51.568;5.048;2023-01-29T02:21:40;102965.16;;;10.21;50.48
69535;BME280;56754;51.568;5.048;2023-01-29T02:35:33;102958.03;;;10.00;52.12
69535;BME280;56754;51.568;5.048;2023-01-29T02:40:43;102954.75;;;9.93;52.79
69535;BME280;56754;51.568;5.048;2023-01-29T02:49:26;102937.81;;;9.82;53.10
69535;BME280;56754;51.568;5.048;2023-01-29T02:54:29;102935.34;;;9.75;53.61
69535;BME280;56754;51.568;5.048;2023-01-29T02:57:28;102940.94;;;9.74;54.30
69535;BME280;56754;51.568;5.048;2023-01-29T02:59:58;102937.69;;;9.72;54.36
69535;BME280;56754;51.568;5.048;2023-01-29T03:02:57;102936.09;;;9.71;54.14
69535;BME280;56754;51.568;5.048;2023-01-29T03:06:05;102935.53;;;9.69;53.91
69535;BME280;56754;51.568;5.048;2023-01-29T03:08:36;102930.47;;;9.67;54.11
69535;BME280;56754;51.568;5.048;2023-01-29T03:11:05;102934.16;;;9.66;54.05
69535;BME280;56754;51.568;5.048;2023-01-29T03:13:44;102930.13;;;9.64;53.52
69535;BME280;56754;51.568;5.048;2023-01-29T03:19:19;102923.75;;;9.65;54.12
69535;BME280;56754;51.568;5.048;2023-01-29T03:21:51;102933.59;;;9.64;54.34
69535;BME280;56754;51.568;5.048;2023-01-29T03:24:24;102923.69;;;9.60;54.61
69535;BME280;56754;51.568;5.048;2023-01-29T03:26:50;102924.75;;;9.59;54.27
69535;BME280;56754;51.568;5.048;2023-01-29T03:29:17;102922.59;;;9.55;54.84
69535;BME280;56754;51.568;5.048;2023-01-29T03:31:42;102909.25;;;9.55;53.78
69535;BME280;56754;51.568;5.048;2023-01-29T03:34:14;102920.72;;;9.56;54.15
69535;BME280;56754;51.568;5.048;2023-01-29T03:37:01;102926.06;;;9.56;54.83
69535;BME280;56754;51.568;5.048;2023-01-29T03:39:28;102917.50;;;9.54;54.39
69535;BME280;56754;51.568;5.048;2023-01-29T03:45:05;102917.44;;;9.49;55.87
69535;BME280;56754;51.568;5.048;2023-01-29T03:47:48;102917.13;;;9.45;55.23
69535;BME280;56754;51.568;5.048;2023-01-29T03:52:47;102908.31;;;9.45;55.78
69535;BME280;56754;51.568;5.048;2023-01-29T03:55:18;102900.03;;;9.46;55.48
69535;BME280;56754;51.568;5.048;2023-01-29T03:57:56;102905.38;;;9.46;54.26
69535;BME280;56754;51.568;5.048;2023-01-29T04:00:37;102903.53;;;9.47;55.46
69535;BME280;56754;51.568;5.048;2023-01-29T04:03:18;102904.84;;;9.44;54.89
69535;BME280;56754;51.568;5.048;2023-01-29T04:05:57;102889.88;;;9.43;54.63
69535;BME280;56754;51.568;5.048;2023-01-29T04:08:26;102894.66;;;9.41;55.09
69535;BME280;56754;51.568;5.048;2023-01-29T04:10:55;102890.38;;;9.40;55.13
69535;BME280;56754;51.568;5.048;2023-01-29T04:13:23;102889.06;;;9.43;55.43
69535;BME280;56754;51.568;5.048;2023-01-29T04:15:54;102885.88;;;9.41;56.31
69535;BME280;56754;51.568;5.048;2023-01-29T04:18:20;102889.56;;;9.40;54.64
69535;BME280;56754;51.568;5.048;2023-01-29T04:20:45;102900.00;;;9.41;53.96
69535;BME280;56754;51.568;5.048;2023-01-29T04:23:25;102896.28;;;9.42;55.84
69535;BME280;56754;51.568;5.048;2023-01-29T04:31:31;102894.84;;;9.34;55.08
69535;BME280;56754;51.568;5.048;2023-01-29T04:34:20;102886.31;;;9.32;56.73
69535;BME280;56754;51.568;5.048;2023-01-29T04:37:14;102878.28;;;9.32;55.31
69535;BME280;56754;51.568;5.048;2023-01-29T04:50:48;102849.94;;;9.26;56.49
69535;BME280;56754;51.568;5.048;2023-01-29T04:58:32;102849.94;;;9.26;55.18
69535;BME280;56754;51.568;5.048;2023-01-29T05:01:01;102845.66;;;9.25;55.91
69535;BME280;56754;51.568;5.048;2023-01-29T05:03:30;102836.03;;;9.24;55.22
69535;BME280;56754;51.568;5.048;2023-01-29T05:05:57;102840.31;;;9.25;54.87
69535;BME280;56754;51.568;5.048;2023-01-29T05:08:26;102837.63;;;9.25;55.80
69535;BME280;56754;51.568;5.048;2023-01-29T05:10:54;102834.81;;;9.37;55.60
69535;BME280;56754;51.568;5.048;2023-01-29T05:13:21;102833.78;;;9.65;55.39
69535;BME280;56754;51.568;5.048;2023-01-29T05:15:55;102831.69;;;10.05;54.50
69535;BME280;56754;51.568;5.048;2023-01-29T05:18:22;102823.91;;;10.35;53.52
69535;BME280;56754;51.568;5.048;2023-01-29T05:20:48;102822.47;;;10.65;52.94
69535;BME280;56754;51.568;5.048;2023-01-29T05:23:15;102826.31;;;10.89;52.22
69535;BME280;56754;51.568;5.048;2023-01-29T05:25:41;102811.38;;;11.14;51.83
69535;BME280;56754;51.568;5.048;2023-01-29T05:28:08;102805.81;;;11.36;51.11
69535;BME280;56754;51.568;5.048;2023-01-29T05:30:36;102795.94;;;11.57;50.55
69535;BME280;56754;51.568;5.048;2023-01-29T05:33:02;102791.66;;;11.66;50.07
69535;BME280;56754;51.568;5.048;2023-01-29T05:35:28;102801.53;;;11.71;49.52
69535;BME280;56754;51.568;5.048;2023-01-29T05:37:56;102798.34;;;11.69;49.48
69535;BME280;56754;51.568;5.048;2023-01-29T05:40:23;102804.25;;;11.66;49.24
69535;BME280;56754;51.568;5.048;2023-01-29T05:42:48;102805.03;;;11.61;49.08
69535;BME280;56754;51.568;5.048;2023-01-29T05:45:14;102808.50;;;11.56;48.72
69535;BME280;56754;51.568;5.048;2023-01-29T05:47:39;102806.34;;;11.53;48.35
69535;BME280;56754;51.568;5.048;2023-01-29T05:50:05;102822.69;;;11.47;48.79
69535;BME280;56754;51.568;5.048;2023-01-29T05:52:30;102830.72;;;11.42;49.22
69535;BME280;56754;51.568;5.048;2023-01-29T05:54:55;102829.91;;;11.36;49.27
69535;BME280;56754;51.568;5.048;2023-01-29T05:57:21;102825.63;;;11.30;49.63
69535;BME280;56754;51.568;5.048;2023-01-29T05:59:46;102822.13;;;11.24;50.06
69535;BME280;56754;51.568;5.048;2023-01-29T06:02:11;102827.72;;;11.18;50.19
69535;BME280;56754;51.568;5.048;2023-01-29T06:04:37;102822.63;;;11.11;50.50
69535;BME280;56754;51.568;5.048;2023-01-29T06:07:02;102820.75;;;11.06;50.65
69535;BME280;56754;51.568;5.048;2023-01-29T06:09:27;102816.97;;;11.02;50.74
69535;BME280;56754;51.568;5.048;2023-01-29T06:11:53;102826.84;;;10.97;51.23
69535;BME280;56754;51.568;5.048;2023-01-29T06:14:18;102823.09;;;10.92;51.20
69535;BME280;56754;51.568;5.048;2023-01-29T06:16:44;102833.53;;;10.89;51.59
69535;BME280;56754;51.568;5.048;2023-01-29T06:19:09;102836.97;;;10.84;51.52
69535;BME280;56754;51.568;5.048;2023-01-29T06:21:34;102836.72;;;10.81;51.63
69535;BME280;56754;51.568;5.048;2023-01-29T06:24:00;102839.34;;;10.76;51.65
69535;BME280;56754;51.568;5.048;2023-01-29T06:26:25;102842.53;;;10.73;51.76
69535;BME280;56754;51.568;5.048;2023-01-29T06:28:50;102832.38;;;10.69;52.05
69535;BME280;56754;51.568;5.048;2023-01-29T06:31:16;102830.50;;;10.65;52.03
69535;BME280;56754;51.568;5.048;2023-01-29T06:33:41;102816.28;;;10.59;52.09
69535;BME280;56754;51.568;5.048;2023-01-29T06:36:07;102809.84;;;10.55;51.97
69535;BME280;56754;51.568;5.048;2023-01-29T06:38:32;102799.13;;;10.50;52.23
69535;BME280;56754;51.568;5.048;2023-01-29T06:40:58;102798.03;;;10.46;52.52
69535;BME280;56754;51.568;5.048;2023-01-29T06:43:23;102804.19;;;10.46;52.48
69535;BME280;56754;51.568;5.048;2023-01-29T06:45:54;102801.03;;;10.60;52.43
69535;BME280;56754;51.568;5.048;2023-01-29T06:48:20;102798.19;;;10.82;52.15
69535;BME280;56754;51.568;5.048;2023-01-29T06:50:45;102798.78;;;11.04;51.87
69535;BME280;56754;51.568;5.048;2023-01-29T06:53:11;102798.31;;;11.28;51.34
69535;BME280;56754;51.568;5.048;2023-01-29T06:55:36;102803.41;;;11.50;51.26
69535;BME280;56754;51.568;5.048;2023-01-29T06:58:06;102798.88;;;11.71;50.38
69535;BME280;56754;51.568;5.048;2023-01-29T07:00:32;102802.91;;;11.89;49.80
69535;BME280;56754;51.568;5.048;2023-01-29T07:02:57;102802.63;;;12.00;49.34
69535;BME280;56754;51.568;5.048;2023-01-29T07:05:22;102807.44;;;12.03;48.88
69535;BME280;56754;51.568;5.048;2023-01-29T07:07:47;102797.25;;;12.00;48.94
69535;BME280;56754;51.568;5.048;2023-01-29T07:10:13;102798.88;;;11.96;48.82
69535;BME280;56754;51.568;5.048;2023-01-29T07:12:38;102795.16;;;11.92;48.89
69535;BME280;56754;51.568;5.048;2023-01-29T07:15:04;102801.59;;;11.86;48.52
69535;BME280;56754;51.568;5.048;2023-01-29T07:17:29;102801.00;;;11.79;48.40
69535;BME280;56754;51.568;5.048;2023-01-29T07:19:55;102803.16;;;11.72;48.16
69535;BME280;56754;51.568;5.048;2023-01-29T07:22:20;102803.16;;;11.67;47.80
69535;BME280;56754;51.568;5.048;2023-01-29T07:24:45;102802.34;;;11.61;48.23
69535;BME280;56754;51.568;5.048;2023-01-29T07:27:10;102810.13;;;11.52;48.81
69535;BME280;56754;51.568;5.048;2023-01-29T07:29:36;102803.16;;;11.46;49.05
69535;BME280;56754;51.568;5.048;2023-01-29T07:32:01;102810.38;;;11.41;49.32
69535;BME280;56754;51.568;5.048;2023-01-29T07:34:26;102822.13;;;11.34;49.58
69535;BME280;56754;51.568;5.048;2023-01-29T07:36:52;102806.59;;;11.26;49.74
69535;BME280;56754;51.568;5.048;2023-01-29T07:39:18;102803.38;;;11.19;50.17
69535;BME280;56754;51.568;5.048;2023-01-29T07:41:43;102804.44;;;11.13;50.29
69535;BME280;56754;51.568;5.048;2023-01-29T07:44:08;102815.41;;;11.06;50.30
69535;BME280;56754;51.568;5.048;2023-01-29T07:46:34;102800.13;;;11.02;50.40
69535;BME280;56754;51.568;5.048;2023-01-29T07:48:59;102799.31;;;10.96;50.74
69535;BME280;56754;51.568;5.048;2023-01-29T07:51:24;102790.44;;;10.90;51.11
69535;BME280;56754;51.568;5.048;2023-01-29T07:53:50;102793.41;;;10.89;50.91
69535;BME280;56754;51.568;5.048;2023-01-29T07:56:15;102799.81;;;10.93;50.96
69535;BME280;56754;51.568;5.048;2023-01-29T07:58:40;102796.13;;;11.09;51.38
69535;BME280;56754;51.568;5.048;2023-01-29T08:01:06;102798.84;;;11.30;51.09
69535;BME280;56754;51.568;5.048;2023-01-29T08:03:31;102803.16;;;11.51;50.52
69535;BME280;56754;51.568;5.048;2023-01-29T08:05:57;102789.78;;;11.72;50.22
69535;BME280;56754;51.568;5.048;2023-01-29T08:08:22;102795.16;;;11.92;49.69
69535;BME280;56754;51.568;5.048;2023-01-29T08:10:47;102785.75;;;12.10;49.04
69535;BME280;56754;51.568;5.048;2023-01-29T08:13:13;102790.81;;;12.22;48.53
69535;BME280;56754;51.568;5.048;2023-01-29T08:15:42;102776.03;;;12.24;48.28
69535;BME280;56754;51.568;5.048;2023-01-29T08:18:07;102780.59;;;12.24;48.40
69535;BME280;56754;51.568;5.048;2023-01-29T08:20:33;102785.44;;;12.17;47.64
69535;BME280;56754;51.568;5.048;2023-01-29T08:23:04;102783.31;;;12.09;47.83
69535;BME280;56754;51.568;5.048;2023-01-29T08:25:29;102782.78;;;12.06;48.53
69535;BME280;56754;51.568;5.048;2023-01-29T08:27:56;102779.84;;;12.13;48.79
69535;BME280;56754;51.568;5.048;2023-01-29T08:30:22;102774.19;;;12.20;49.13
69535;BME280;56754;51.568;5.048;2023-01-29T08:32:47;102770.94;;;12.28;49.88
69535;BME280;56754;51.568;5.048;2023-01-29T08:35:12;102770.38;;;12.36;49.83
69535;BME280;56754;51.568;5.048;2023-01-29T08:37:37;102759.63;;;12.41;49.76
69535;BME280;56754;51.568;5.048;2023-01-29T08:40:03;102766.56;;;12.47;49.75
69535;BME280;56754;51.568;5.048;2023-01-29T08:42:28;102764.69;;;12.53;50.39
69535;BME280;56754;51.568;5.048;2023-01-29T08:44:54;102755.28;;;12.61;49.84
69535;BME280;56754;51.568;5.048;2023-01-29T08:47:19;102749.03;;;12.70;50.19
69535;BME280;56754;51.568;5.048;2023-01-29T08:49:44;102759.19;;;12.79;49.35
69535;BME280;56754;51.568;5.048;2023-01-29T08:52:09;102747.06;;;12.86;49.86
69535;BME280;56754;51.568;5.048;2023-01-29T08:54:35;102754.84;;;12.93;49.30
69535;BME280;56754;51.568;5.048;2023-01-29T08:57:00;102759.34;;;12.97;49.33
69535;BME280;56754;51.568;5.048;2023-01-29T08:59:25;102751.81;;;13.05;49.01
69535;BME280;56754;51.568;5.048;2023-01-29T09:01:50;102750.63;;;13.16;48.86
69535;BME280;56754;51.568;5.048;2023-01-29T09:04:16;102767.25;;;13.28;48.19
69535;BME280;56754;51.568;5.048;2023-01-29T09:06:41;102770.38;;;13.40;47.90
69535;BME280;56754;51.568;5.048;2023-01-29T09:09:06;102769.47;;;13.55;48.03
69535;BME280;56754;51.568;5.048;2023-01-29T09:11:32;102773.09;;;13.70;47.69
69535;BME280;56754;51.568;5.048;2023-01-29T09:13:57;102760.88;;;13.82;47.71
69535;BME280;56754;51.568;5.048;2023-01-29T09:16:22;102759.63;;;13.99;47.58
69535;BME280;56754;51.568;5.048;2023-01-29T09:18:48;102765.13;;;14.13;47.39
69535;BME280;56754;51.568;5.048;2023-01-29T09:21:13;102759.09;;;14.26;47.01
69535;BME280;56754;51.568;5.048;2023-01-29T09:23:38;102763.53;;;14.36;46.51
69535;BME280;56754;51.568;5.048;2023-01-29T09:26:03;102754.84;;;14.44;46.17
69535;BME280;56754;51.568;5.048;2023-01-29T09:28:30;102763.09;;;14.52;46.39
69535;BME280;56754;51.568;5.048;2023-01-29T09:31:00;102761.63;;;14.60;46.23
69535;BME280;56754;51.568;5.048;2023-01-29T09:33:26;102759.16;;;14.64;46.05
69535;BME280;56754;51.568;5.048;2023-01-29T09:35:51;102763.13;;;14.71;46.09
69535;BME280;56754;51.568;5.048;2023-01-29T09:38:16;102758.75;;;14.75;46.06
69535;BME280;56754;51.568;5.048;2023-01-29T09:43:41;102747.97;;;14.75;45.71
69535;BME280;56754;51.568;5.048;2023-01-29T09:49:06;102746.00;;;14.62;45.64
69535;BME280;56754;51.568;5.048;2023-01-29T09:51:49;102743.69;;;14.55;45.70
69535;BME280;56754;51.568;5.048;2023-01-29T09:56:44;102741.06;;;14.45;46.39
69535;BME280;56754;51.568;5.048;2023-01-29T09:59:12;102738.69;;;14.44;46.58
69535;BME280;56754;51.568;5.048;2023-01-29T10:04:40;102749.66;;;14.52;46.72
69535;BME280;56754;51.568;5.048;2023-01-29T10:07:30;102742.28;;;14.58;46.64
69535;BME280;56754;51.568;5.048;2023-01-29T10:15:49;102757.06;;;14.37;46.00
69535;BME280;56754;51.568;5.048;2023-01-29T10:21:15;102744.75;;;14.30;47.46
69535;BME280;56754;51.568;5.048;2023-01-29T10:24:07;102749.88;;;14.32;47.73
69535;BME280;56754;51.568;5.048;2023-01-29T10:26:37;102739.59;;;14.34;47.53
69535;BME280;56754;51.568;5.048;2023-01-29T10:29:05;102732.06;;;14.36;47.26
69535;BME280;56754;51.568;5.048;2023-01-29T10:31:32;102727.19;;;14.38;47.56
69535;BME280;56754;51.568;5.048;2023-01-29T10:34:22;102732.78;;;14.42;47.54
69535;BME280;56754;51.568;5.048;2023-01-29T10:36:49;102730.31;;;14.45;47.24
69535;BME280;56754;51.568;5.048;2023-01-29T10:39:17;102731.59;;;14.53;47.33
69535;BME280;56754;51.568;5.048;2023-01-29T10:44:36;102721.63;;;14.72;47.41
69535;BME280;56754;51.568;5.048;2023-01-29T10:58:29;102716.50;;;14.76;46.13
69535;BME280;56754;51.568;5.048;2023-01-29T11:00:55;102699.03;;;14.73;46.23
69535;BME280;56754;51.568;5.048;2023-01-29T11:03:29;102692.13;;;14.67;46.32
69535;BME280;56754;51.568;5.048;2023-01-29T11:06:20;102689.28;;;14.59;46.84
69535;BME280;56754;51.568;5.048;2023-01-29T11:11:49;102677.00;;;14.28;47.22
69535;BME280;56754;51.568;5.048;2023-01-29T11:15:12;102663.25;;;14.11;48.24
69535;BME280;56754;51.568;5.048;2023-01-29T11:17:17;102652.66;;;13.96;48.55
69535;BME280;56754;51.568;5.048;2023-01-29T11:19:45;102646.63;;;13.85;48.69
69535;BME280;56754;51.568;5.048;2023-01-29T11:22:19;102641.66;;;13.73;48.85
69535;BME280;56754;51.568;5.048;2023-01-29T11:24:46;102631.00;;;13.63;48.69
69535;BME280;56754;51.568;5.048;2023-01-29T11:27:22;102643.19;;;13.55;48.65
69535;BME280;56754;51.568;5.048;2023-01-29T11:29:48;102643.28;;;13.45;48.29
69535;BME280;56754;51.568;5.048;2023-01-29T11:35:05;102633.78;;;13.29;47.54
69535;BME280;56754;51.568;5.048;2023-01-29T11:37:45;102617.16;;;13.21;47.56
69535;BME280;56754;51.568;5.048;2023-01-29T11:40:33;102608.09;;;13.12;47.43
69535;BME280;56754;51.568;5.048;2023-01-29T11:45:40;102609.00;;;13.03;47.55
69535;BME280;56754;51.568;5.048;2023-01-29T11:48:13;102606.88;;;13.00;47.65
69535;BME280;56754;51.568;5.048;2023-01-29T11:50:39;102602.31;;;13.00;48.63
69535;BME280;56754;51.568;5.048;2023-01-29T11:53:05;102593.13;;;13.06;48.94
69535;BME280;56754;51.568;5.048;2023-01-29T11:55:34;102583.69;;;13.14;49.04
69535;BME280;56754;51.568;5.048;2023-01-29T11:58:06;102587.34;;;13.23;49.23
69535;BME280;56754;51.568;5.048;2023-01-29T12:00:38;102585.66;;;13.32;49.37
69535;BME280;56754;51.568;5.048;2023-01-29T12:03:20;102584.00;;;13.36;47.85
69535;BME280;56754;51.568;5.048;2023-01-29T12:06:01;102574.09;;;13.37;47.33
69535;BME280;56754;51.568;5.048;2023-01-29T12:08:35;102577.03;;;13.35;47.37
69535;BME280;56754;51.568;5.048;2023-01-29T12:11:28;102581.41;;;13.31;47.04
69535;BME280;56754;51.568;5.048;2023-01-29T12:13:55;102569.59;;;13.27;46.98
69535;BME280;56754;51.568;5.048;2023-01-29T12:16:37;102569.63;;;13.22;46.96
69535;BME280;56754;51.568;5.048;2023-01-29T12:19:47;102568.88;;;13.16;45.98
69535;BME280;56754;51.568;5.048;2023-01-29T12:21:59;102566.50;;;13.10;47.44
69535;BME280;56754;51.568;5.048;2023-01-29T12:27:37;102553.00;;;13.25;48.86
69535;BME280;56754;51.568;5.048;2023-01-29T12:30:18;102554.53;;;13.31;48.17
69535;BME280;56754;51.568;5.048;2023-01-29T12:35:30;102546.47;;;13.31;46.88
69535;BME280;56754;51.568;5.048;2023-01-29T12:38:13;102532.31;;;13.26;46.55
69535;BME280;56754;51.568;5.048;2023-01-29T12:40:46;102523.97;;;13.22;47.09
69535;BME280;56754;51.568;5.048;2023-01-29T12:43:17;102526.44;;;13.18;47.06
69535;BME280;56754;51.568;5.048;2023-01-29T12:45:47;102511.19;;;13.14;46.98
69535;BME280;56754;51.568;5.048;2023-01-29T12:48:20;102502.09;;;13.10;47.34
69535;BME280;56754;51.568;5.048;2023-01-29T12:50:48;102508.81;;;13.07;47.69
69535;BME280;56754;51.568;5.048;2023-01-29T12:55:58;102501.47;;;13.18;48.17
69535;BME280;56754;51.568;5.048;2023-01-29T12:58:34;102496.06;;;13.23;48.61
69535;BME280;56754;51.568;5.048;2023-01-29T13:01:12;102492.25;;;13.29;47.79
69535;BME280;56754;51.568;5.048;2023-01-29T13:03:58;102496.53;;;13.30;47.23
69535;BME280;56754;51.568;5.048;2023-01-29T13:06:30;102485.28;;;13.28;47.32
69535;BME280;56754;51.568;5.048;2023-01-29T13:09:00;102483.97;;;13.26;47.11
69535;BME280;56754;51.568;5.048;2023-01-29T13:11:44;102480.22;;;13.21;47.04
69535;BME280;56754;51.568;5.048;2023-01-29T13:14:18;102470.03;;;13.18;46.97
69535;BME280;56754;51.568;5.048;2023-01-29T13:16:47;102465.56;;;13.14;47.00
69535;BME280;56754;51.568;5.048;2023-01-29T13:19:21;102460.19;;;13.14;47.98
69535;BME280;56754;51.568;5.048;2023-01-29T13:21:49;102456.63;;;13.18;48.29
69535;BME280;56754;51.568;5.048;2023-01-29T13:24:19;102441.25;;;13.24;48.15
69535;BME280;56754;51.568;5.048;2023-01-29T13:26:46;102445.00;;;13.28;48.47
69535;BME280;56754;51.568;5.048;2023-01-29T13:29:29;102440.66;;;13.32;47.78
69535;BME280;56754;51.568;5.048;2023-01-29T13:31:56;102438.75;;;13.33;47.57
69535;BME280;56754;51.568;5.048;2023-01-29T13:34:24;102430.69;;;13.33;47.18
69535;BME280;56754;51.568;5.048;2023-01-29T13:36:52;102428.59;;;13.30;46.88
69535;BME280;56754;51.568;5.048;2023-01-29T13:41:44;102416.06;;;13.20;46.99
69535;BME280;56754;51.568;5.048;2023-01-29T13:44:23;102409.66;;;13.16;47.45
69535;BME280;56754;51.568;5.048;2023-01-29T13:46:54;102409.38;;;13.17;48.43
69535;BME280;56754;51.568;5.048;2023-01-29T13:55:03;102403.28;;;13.36;48.69
69535;BME280;56754;51.568;5.048;2023-01-29T14:00:04;102391.16;;;13.38;47.32
69535;BME280;56754;51.568;5.048;2023-01-29T14:02:30;102390.63;;;13.36;47.59
69535;BME280;56754;51.568;5.048;2023-01-29T14:07:58;102386.41;;;13.30;47.39
69535;BME280;56754;51.568;5.048;2023-01-29T14:10:25;102387.78;;;13.28;47.36
69535;BME280;56754;51.568;5.048;2023-01-29T14:12:53;102389.69;;;13.27;48.45
69535;BME280;56754;51.568;5.048;2023-01-29T14:15:24;102379.16;;;13.31;48.88
69535;BME280;56754;51.568;5.048;2023-01-29T14:17:55;102387.94;;;13.36;48.84
69535;BME280;56754;51.568;5.048;2023-01-29T14:20:33;102388.69;;;13.42;48.94
69535;BME280;56754;51.568;5.048;2023-01-29T14:23:00;102384.63;;;13.45;48.35
69535;BME280;56754;51.568;5.048;2023-01-29T14:25:37;102387.81;;;13.47;48.07
69535;BME280;56754;51.568;5.048;2023-01-29T14:28:13;102380.84;;;13.46;47.65
69535;BME280;56754;51.568;5.048;2023-01-29T14:30:45;102376.56;;;13.45;48.02
69535;BME280;56754;51.568;5.048;2023-01-29T14:33:34;102371.78;;;13.41;47.30
69535;BME280;56754;51.568;5.048;2023-01-29T14:36:20;102376.13;;;13.37;47.60
69535;BME280;56754;51.568;5.048;2023-01-29T14:38:47;102375.09;;;13.33;47.84
69535;BME280;56754;51.568;5.048;2023-01-29T14:41:18;102374.03;;;13.34;48.48
69535;BME280;56754;51.568;5.048;2023-01-29T14:43:47;102373.44;;;13.37;48.85
69535;BME280;56754;51.568;5.048;2023-01-29T14:49:00;102378.66;;;13.48;48.80
69535;BME280;56754;51.568;5.048;2023-01-29T14:51:26;102371.66;;;13.52;48.19
69535;BME280;56754;51.568;5.048;2023-01-29T14:54:21;102361.44;;;13.49;47.48
69535;BME280;56754;51.568;5.048;2023-01-29T14:56:57;102362.34;;;13.44;47.61
69535;BME280;56754;51.568;5.048;2023-01-29T14:59:30;102358.34;;;13.41;47.95
69535;BME280;56754;51.568;5.048;2023-01-29T15:02:01;102364.28;;;13.38;47.78
69535;BME280;56754;51.568;5.048;2023-01-29T15:04:45;102348.75;;;13.35;48.26
69535;BME280;56754;51.568;5.048;2023-01-29T15:07:33;102347.66;;;13.36;48.52